PAKT Airport Information

Runway Information
Runway 11 Length 7500 ft width 150 ft
Elevation 82 ft Threshold 0 ft Heading 136
Runway 29 Length 7500 ft Width 150 ft
Elevation 89 ft Threshold 0 ft Heading 316
Runway ESE Length 9500 ft width 1500 ft
Elevation 0 ft Threshold 0 ft Heading 0
Runway WNW Length 9500 ft Width 1500 ft
Elevation 0 ft Threshold 0 ft Heading 0
Airport Frequencies
Type ATIS Name ATIS Frequency 119.9 MHZ
Type CNTR Name ANCHORAGE Frequency 118.5 MHZ
Type CTAF Name CTAF Frequency 123.6 MHZ
Type FSS Name RDO Frequency 123.6 MHZ
Type UNIC Name UNICOM Frequency 122.95 MHZ
Airport Navaids
Type NDB Name Clam Cove Frequency 396 KHZ
Airport Weather Information & NOTAM
ADDS - METARS form results

(0935 UTC 09 May 2021)
Data provider http://aviationweather.gov/metar/data/
 
METAR text: PAKT 090918Z AUTO 00000KT 8SM -RA BKN006 OVC017 07/06 A3022 RMK AO2 P0001 T00670061 TSNO
Conditions at: PAKT (KETCHIKAN , AK, US) observed 0918 UTC 09 May 2021
Temperature: 6.7°C (44°F)
Dewpoint: 6.1°C (43°F) [RH = 96%]
Pressure (altimeter): 30.22 inches Hg (1023.5 mb)
Winds: calm
Visibility: 8 miles (13 km)
Ceiling: 600 feet AGL
Clouds: broken clouds at 600 feet AGL
overcast cloud deck at 1700 feet AGL
Weather: -RA  (light rain)

METAR text: PAKT 090908Z AUTO 00000KT 9SM -RA SCT007 OVC017 07/06 A3022 RMK AO2 P0001 T00670061 TSNO
Conditions at: PAKT (KETCHIKAN , AK, US) observed 0908 UTC 09 May 2021
Temperature: 6.7°C (44°F)
Dewpoint: 6.1°C (43°F) [RH = 96%]
Pressure (altimeter): 30.22 inches Hg (1023.5 mb)
Winds: calm
Visibility: 9 miles (14 km)
Ceiling: 1700 feet AGL
Clouds: scattered clouds at 700 feet AGL
overcast cloud deck at 1700 feet AGL
Weather: -RA  (light rain)

METAR text: PAKT 090853Z AUTO 00000KT 10SM -RA OVC017 07/06 A3022 RMK AO2 RAB37 SLP233 P0000 60002 T00670061 400830061 53006 TSNO
Conditions at: PAKT (KETCHIKAN , AK, US) observed 0853 UTC 09 May 2021
Temperature: 6.7°C (44°F)
Dewpoint: 6.1°C (43°F) [RH = 96%]
Pressure (altimeter): 30.22 inches Hg (1023.5 mb)
[Sea-level pressure: 1023.3 mb]
Winds: calm
Visibility: 10 or more miles (16+ km)
Ceiling: 1700 feet AGL
Clouds: overcast cloud deck at 1700 feet AGL
Weather: -RA  (light rain)

Forecast for: PAKT (KETCHIKAN , AK, US)
Text: PAKT 090645Z 0907/1006 VRB03KT 6SM -SHRA BR SCT008 OVC015
Forecast period: 0700 to 1500 UTC 09 May 2021
Forecast type: FROM: standard forecast or significant change
Winds: variable direction winds at 3 MPH (3 knots; 1.5 m/s)
Visibility: 6 miles (10 km)
Ceiling: 1500 feet AGL
Clouds: scattered clouds at 800 feet AGL
overcast cloud deck at 1500 feet AGL
Weather: -SHRA BR  (light rain showers, mist)
Text: TEMPO 0907/0911 4SM -SHRA BR BKN007 OVC015
Forecast period: 0700 to 1100 UTC 09 May 2021
Forecast type: TEMPORARY: The following changes expected for less than half the time period
Visibility: 4 miles (6 km)
Ceiling: 700 feet AGL
Clouds: broken clouds at 700 feet AGL
overcast cloud deck at 1500 feet AGL
Weather: -SHRA BR  (light rain showers, mist)
Text: FM091500 34008KT P6SM VCSH BKN025 OVC035
Forecast period: 1500 to 2100 UTC 09 May 2021
Forecast type: FROM: standard forecast or significant change
Winds: from the NNW (340 degrees) at 9 MPH (8 knots; 4.1 m/s)
Visibility: 6 or more miles (10+ km)
Ceiling: 2500 feet AGL
Clouds: broken clouds at 2500 feet AGL
overcast cloud deck at 3500 feet AGL
Weather: VCSH  (showers in vicinity)
Text: FM092100 03005KT P6SM VCSH BKN050 AMD LTD TO CLD VIS AND WIND 0907/0915
Forecast period: 2100 UTC 09 May 2021 to 0600 UTC 10 May 2021
Forecast type: FROM: standard forecast or significant change
Winds: from the NNE (30 degrees) at 6 MPH (5 knots; 2.6 m/s)
Visibility: 6 or more miles (10+ km)
Ceiling: 5000 feet AGL
Clouds: broken clouds at 5000 feet AGL
Weather: VCSH  (showers in vicinity)